Garfield, KY (40140)

03:03 AM CST die 06o February, anno 2016 (GMT -0600)
Old Weldon | | Change Station
CLOSE
Current Station
Personal Weather Stations
Location: Brandenburg, KY
Elevation: 636 ft
Nearby Weather Stations

Elev 636 ft 37.97 °N, 86.13 °W | Updated 1 minute ago

Serena
Serena
28.7 °F
Feels Like 29 °F
N
0.0
Ventus Variabilis Ventus from Auster
Gusts 0.0 mph

Hodie
High -- | Low -- °F
--% Chance of Precip.
Yesterday
High -- | Low -- °F
Precip. -- in
Pressio 30.35 in
Visibilitas 10.0 milia passuum
Clouds Serena
Frigus Venti 29 °F
Frigus in quo Ros apparet 24 °F
Umor 82%
Rainfall 0.00 in
Snow Depth Not available.
6:45 AM 5:13 PM
Waning Crescent, 6% visible
METAR KFTK 060858Z AUTO 00000KT 10SM CLR M05/M07 A3032 RMK AO2 SLP277 T10461070 55002
Pressio 30.35 in
Visibilitas 10.0 milia passuum
Clouds Serena
Frigus Venti 29 °F
Frigus in quo Ros apparet 24 °F
Umor 82%
Rainfall 0.00 in
Snow Depth Not available.
6:45 AM 5:13 PM
Waning Crescent, 6% visible
METAR KFTK 060858Z AUTO 00000KT 10SM CLR M05/M07 A3032 RMK AO2 SLP277 T10461070 55002

10-Day Weather Forecast

Almanac

Astronomy

Feb. 06, 2016 Rise Set
Actual Time
Civil Twilight
Nautical Twilight
Astronomical Twilight
Moon
Length Of Visible Light
Length of Day
Tomorrow will be .
, % of the Moon is Illuminated

Today's Extremes

State Highs State Lows

Community

WunderPhotos

Upload Photos

1,890,933 photos uploaded!

WunderBlog® & News

Nearby

Air Quality

  Air Quality AQ Index Pollutant
Not available.

Snow Depth

Station Depth Elevation

Earthquake Activity

City Distance Mag. Time & Date
Minimum magnitude displayed is 2.5.

Coastal Water Temperatures

Locus Calor

Stations

Nearby Weather Stations

Station Location Temp Frigus Venti Frigus in quo Ros apparet Umor Ventus Precip. Elev Renovata Type
                   

Watches & Warnings

There are currently no watches in effect.